»·PEaware :: JBU236 KPSP-KATL

JBU236 :: KPSP-KATL

FLIGHT INFORMATION

Flight Status: Arrived
Operator:
JetBlue Airways
More flights by this operator :: More flights under this callsign
Pilot: Kenny J. (11300)
Aircraft: AIRBUS A320
(A320)
More flights by this aircraft type
Origin: KPSP Palm Springs Intl
United States
Destination: KATL Hartsfield-Jackson Atlanta
United States
More flights between these airports :: More routes between these airports
Route: TRM6 TRM J134 PKE J74 NABOB J231 SJN DCT PNH J14 IRW DCT MEM RPTOR3
File this flight plan on PilotEdge
Remarks:
Altitude:
(Current/Filed)
33,000ft
Speed:
(Current/Filed)
310kts
Departed: 07-Feb-17 04:39 AM
Arrived: 07-Feb-17 06:47 AM
Distance/Time
Traveled:
1594nm/2:08
Distance/Time
To Go:
Arrived

Flight Plot

Page will automatically refresh every two minutes.

Flight plan parsing failed; only flown route is shown


Map Options




Map Legend


Flown Route
Filed Route
Departure Airport
Arrival Airport
Navaid (VOR, NDB)
Fix

Horizontal Profiles

Position Reports

Time Latitude Longitude Heading Altitude Ground
Speed
07-Feb-17 04:38 34.885625 -105.442814 81 33548ft 513kts
07-Feb-17 04:39 34.904360 -105.270293 81 33542ft 513kts
07-Feb-17 04:40 34.922773 -105.098101 81 33483ft 514kts
07-Feb-17 04:41 34.941005 -104.925453 81 33503ft 514kts
07-Feb-17 04:42 34.958947 -104.752322 82 33525ft 516kts
07-Feb-17 04:43 34.976733 -104.578715 82 33570ft 517kts
07-Feb-17 04:44 34.994337 -104.404318 82 33574ft 517kts
07-Feb-17 04:45 35.011649 -104.230611 82 33567ft 517kts
07-Feb-17 04:46 35.028729 -104.056613 82 33559ft 517kts
07-Feb-17 04:47 35.045483 -103.882696 82 33516ft 517kts
07-Feb-17 04:48 35.062142 -103.707998 82 33490ft 521kts
07-Feb-17 04:49 35.078681 -103.531485 82 33580ft 523kts
07-Feb-17 04:50 35.094998 -103.355188 82 33579ft 522kts
07-Feb-17 04:51 35.110931 -103.178734 82 33514ft 522kts
07-Feb-17 04:52 35.126636 -103.002425 82 33507ft 523kts
07-Feb-17 04:53 35.142240 -102.825642 82 33551ft 525kts
07-Feb-17 04:54 35.157489 -102.648277 82 33592ft 526kts
07-Feb-17 04:55 35.172523 -102.470623 82 33599ft 525kts
07-Feb-17 04:56 35.187324 -102.292958 82 33566ft 524kts
07-Feb-17 04:57 35.201834 -102.115902 82 33512ft 523kts
07-Feb-17 04:58 35.216072 -101.938873 82 33532ft 525kts
07-Feb-17 04:59 35.230109 -101.760198 82 33538ft 529kts
07-Feb-17 05:00 35.240481 -101.580535 85 33605ft 530kts
07-Feb-17 05:01 35.248589 -101.401138 85 33598ft 528kts
07-Feb-17 05:02 35.256391 -101.222342 85 33522ft 526kts
07-Feb-17 05:03 35.263992 -101.043242 85 33510ft 530kts
07-Feb-17 05:04 35.271433 -100.862824 85 33578ft 533kts
07-Feb-17 05:05 35.278513 -100.680889 86 33609ft 533kts
07-Feb-17 05:06 35.285476 -100.500508 86 33605ft 529kts
07-Feb-17 05:07 35.291992 -100.321006 85 33529ft 528kts
07-Feb-17 05:08 35.298342 -100.140733 85 33556ft 531kts
07-Feb-17 05:09 35.304360 -99.959582 85 33626ft 531kts
07-Feb-17 05:10 35.310137 -99.779796 85 33604ft 530kts
07-Feb-17 05:11 35.315663 -99.598914 85 33520ft 531kts
07-Feb-17 05:12 35.320921 -99.417720 86 33524ft 532kts
07-Feb-17 05:13 35.325935 -99.237097 86 33588ft 533kts
07-Feb-17 05:14 35.330703 -99.056690 86 33629ft 535kts
07-Feb-17 05:15 35.335116 -98.872630 86 33631ft 536kts
07-Feb-17 05:16 35.339339 -98.690626 86 33621ft 535kts
07-Feb-17 05:17 35.343222 -98.508778 86 33588ft 534kts
07-Feb-17 05:18 35.346871 -98.326400 86 33581ft 534kts
07-Feb-17 05:19 35.350198 -98.144993 86 33603ft 533kts
07-Feb-17 05:20 35.353283 -97.963093 86 33603ft 533kts
07-Feb-17 05:21 35.356054 -97.781542 86 33581ft 534kts
07-Feb-17 05:22 35.358361 -97.600431 88 33543ft 536kts
07-Feb-17 05:23 35.355696 -97.417539 88 33574ft 536kts
07-Feb-17 05:24 35.352872 -97.234239 88 33596ft 537kts
07-Feb-17 05:25 35.349679 -97.051065 88 33589ft 539kts
07-Feb-17 05:26 35.346207 -96.867667 88 33610ft 540kts
07-Feb-17 05:27 35.342517 -96.685179 88 33615ft 540kts
07-Feb-17 05:28 35.338442 -96.500250 88 33605ft 540kts
07-Feb-17 05:29 35.334156 -96.316627 88 33610ft 540kts
07-Feb-17 05:30 35.329556 -96.132637 88 33609ft 539kts
07-Feb-17 05:31 35.324717 -95.949420 88 33602ft 539kts
07-Feb-17 05:32 35.319575 -95.765384 88 33516ft 541kts
07-Feb-17 05:33 35.314192 -95.581446 89 33560ft 542kts
07-Feb-17 05:34 35.308374 -95.397037 89 33607ft 543kts
07-Feb-17 05:35 35.302403 -95.212092 89 33603ft 545kts
07-Feb-17 05:36 35.296061 -95.026760 89 33596ft 546kts
07-Feb-17 05:37 35.289437 -94.840758 89 33579ft 546kts
07-Feb-17 05:38 35.282580 -94.655086 89 33530ft 547kts
07-Feb-17 05:39 35.275405 -94.469397 89 33551ft 547kts
07-Feb-17 05:40 35.267868 -94.282733 89 33558ft 548kts
07-Feb-17 05:41 35.260143 -94.096942 89 33583ft 548kts
07-Feb-17 05:42 35.252056 -93.910779 89 33524ft 549kts
07-Feb-17 05:43 35.243671 -93.723178 89 33496ft 552kts
07-Feb-17 05:44 35.234968 -93.535876 89 33557ft 552kts
07-Feb-17 05:45 35.225987 -93.348281 90 33553ft 553kts
07-Feb-17 05:46 35.216670 -93.160005 90 33539ft 554kts
07-Feb-17 05:47 35.207055 -92.971936 90 33498ft 555kts
07-Feb-17 05:48 35.197136 -92.783391 90 33516ft 556kts
07-Feb-17 05:49 35.186865 -92.594690 90 33550ft 557kts
07-Feb-17 05:50 35.176384 -92.405546 90 33543ft 559kts
07-Feb-17 05:51 35.165477 -92.215489 90 33538ft 559kts
07-Feb-17 05:52 35.154284 -92.026004 90 33539ft 559kts
07-Feb-17 05:53 35.142829 -91.836039 90 33489ft 560kts
07-Feb-17 05:54 35.131035 -91.646799 91 33456ft 563kts
07-Feb-17 05:55 35.118891 -91.455719 91 33534ft 564kts
07-Feb-17 05:56 35.106435 -91.264574 91 33531ft 566kts
07-Feb-17 05:57 35.093660 -91.073668 91 33506ft 564kts
07-Feb-17 05:58 35.080636 -90.882314 91 33418ft 565kts
07-Feb-17 05:59 35.067184 -90.691421 91 33407ft 566kts
07-Feb-17 06:00 35.053530 -90.499942 92 33489ft 567kts
07-Feb-17 06:01 35.039476 -90.308311 92 33473ft 568kts
07-Feb-17 06:02 35.025159 -90.116576 92 33469ft 567kts
07-Feb-17 06:03 35.006701 -89.924495 98 33438ft 568kts
07-Feb-17 06:04 34.978788 -89.735524 98 33349ft 570kts
07-Feb-17 06:05 34.950805 -89.544902 98 33423ft 569kts
07-Feb-17 06:06 34.922299 -89.354732 98 33437ft 570kts
07-Feb-17 06:07 34.893715 -89.165083 99 33440ft 570kts
07-Feb-17 06:08 34.864771 -88.975536 99 33436ft 570kts
07-Feb-17 06:09 34.835572 -88.786389 99 33429ft 569kts
07-Feb-17 06:10 34.806098 -88.597596 99 33398ft 568kts
07-Feb-17 06:11 34.776505 -88.409279 99 33386ft 567kts
07-Feb-17 06:12 34.746393 -88.220829 99 33415ft 565kts
07-Feb-17 06:13 34.716281 -88.033496 99 33388ft 565kts
07-Feb-17 06:14 34.685989 -87.846837 100 33359ft 562kts
07-Feb-17 06:15 34.655429 -87.661114 100 33317ft 555kts
07-Feb-17 06:16 34.624688 -87.475093 100 33357ft 566kts
07-Feb-17 06:17 34.590590 -87.288920 102 33360ft 567kts
07-Feb-17 06:18 34.555719 -87.103821 102 33133ft 556kts
07-Feb-17 06:19 34.520906 -86.920483 103 31893ft 556kts
07-Feb-17 06:20 34.486235 -86.739963 103 30645ft 546kts
07-Feb-17 06:21 34.451998 -86.562498 103 29395ft 537kts
07-Feb-17 06:22 34.417983 -86.388341 103 28142ft 527kts
07-Feb-17 06:23 34.384290 -86.216834 103 26885ft 518kts
07-Feb-17 06:24 34.350902 -86.048660 104 25627ft 510kts
07-Feb-17 06:25 34.293274 -85.895272 121 23912ft 502kts
07-Feb-17 06:26 34.230090 -85.744233 119 21437ft 504kts
07-Feb-17 06:27 34.167151 -85.594989 119 19342ft 490kts
07-Feb-17 06:28 34.106213 -85.450643 119 17359ft 474kts
07-Feb-17 06:29 34.047883 -85.311680 117 15383ft 458kts
07-Feb-17 06:30 33.991389 -85.178011 116 13739ft 434kts
07-Feb-17 06:31 33.937061 -85.051198 115 12063ft 405kts
07-Feb-17 06:32 33.887760 -84.938251 115 10760ft 359kts
07-Feb-17 06:33 33.809143 -84.898626 190 9080ft 311kts
07-Feb-17 06:34 33.722483 -84.896390 182 7099ft 306kts
07-Feb-17 06:35 33.640776 -84.893202 182 6077ft 275kts
07-Feb-17 06:36 33.565263 -84.890051 182 4494ft 269kts
07-Feb-17 06:37 33.495649 -84.887141 183 4093ft 225kts
07-Feb-17 06:38 33.454958 -84.853145 75 4056ft 191kts
07-Feb-17 06:39 33.483651 -84.809105 31 4060ft 167kts
07-Feb-17 06:40 33.516160 -84.771390 32 4051ft 167kts
07-Feb-17 06:41 33.549730 -84.732525 32 4041ft 168kts
07-Feb-17 06:42 33.583293 -84.693616 32 4029ft 168kts
07-Feb-17 06:43 33.616872 -84.654085 40 4020ft 173kts
07-Feb-17 06:44 33.619827 -84.590849 81 2923ft 190kts
07-Feb-17 06:45 33.620110 -84.532794 81 2669ft 166kts
07-Feb-17 06:46 33.620111 -84.479557 83 1595ft 156kts
07-Feb-17 06:47 33.620367 -84.434046 89 1040ft 3kts
07-Feb-17 06:48 33.620367 -84.433411 90 1040ft 1kts
07-Feb-17 06:49 33.620857 -84.431705 60 1040ft 0kts
07-Feb-17 06:50 33.621168 -84.431106 47 1040ft 6kts
07-Feb-17 06:51 33.622433 -84.433073 348 1040ft 10kts
07-Feb-17 06:52 33.626636 -84.433167 358 1040ft 19kts
07-Feb-17 06:53 33.628488 -84.434013 356 1040ft 9kts

Navigation Log

Ident Type
Flight plan parsing failed, navigation log unavailable